Time;durP1;ratioP1;P1;durP2;ratioP2;P2;SDS_P1;SDS_P2;PMS_P1;PMS_P2;Temp;Humidity;BMP_temperature;BMP_pressure;BME280_temperature;BME280_humidity;BME280_pressure;Samples;Min_cycle;Max_cycle;Signal;HPM_P1;HPM_P2
2022/06/29 00:00:27;;;;;;;;;;;;;;;23.20;82.11;99017.53;5033900;28;20071;-38
2022/06/29 00:02:53;;;;;;;;;;;;;;;22.50;84.89;99015.31;5036305;28;20306;-38
2022/06/29 00:05:21;;;;;;;;;;;;;;;22.78;85.45;99013.06;5034464;28;19917;-38
2022/06/29 00:07:46;;;;;;;;;;;;;;;22.41;86.13;99010.00;5033914;28;19939;-38
2022/06/29 00:10:12;;;;;;;;;;;;;;;22.45;88.26;99009.63;5034585;28;19920;-38
2022/06/29 00:12:37;;;;;;;;;;;;;;;22.50;87.34;99006.63;5035606;28;20390;-38
2022/06/29 00:15:03;;;;;;;;;;;;;;;22.55;86.72;99007.91;5034710;28;19994;-37
2022/06/29 00:17:30;;;;;;;;;;;;;;;22.80;87.02;99005.88;5034011;28;20462;-39
2022/06/29 00:19:55;;;;;;;;;;;;;;;22.09;89.85;99005.50;5034793;28;19921;-39
2022/06/29 00:22:21;;;;;;;;;;;;;;;23.10;85.68;99013.03;5036157;28;20496;-39
2022/06/29 00:24:46;;;;;;;;;;;;;;;23.10;84.44;99013.03;5036399;28;19933;-39
2022/06/29 00:27:11;;;;;;;;;;;;;;;22.88;83.75;99013.97;5035526;28;20499;-39
2022/06/29 00:29:37;;;;;;;;;;;;;;;23.62;82.15;99010.41;5035677;28;21051;-39
2022/06/29 00:32:02;;;;;;;;;;;;;;;24.03;81.43;99011.28;5035747;28;19925;-39
2022/06/29 00:34:27;;;;;;;;;;;;;;;24.30;77.62;99002.75;5036462;28;19960;-40
2022/06/29 00:36:53;;;;;;;;;;;;;;;24.92;74.78;98998.06;5035805;28;19960;-40
2022/06/29 00:39:18;;;;;;;;;;;;;;;24.99;72.81;98999.16;5034384;28;19979;-39
2022/06/29 00:41:43;;;;;;;;;;;;;;;24.65;77.89;99006.66;5035961;28;19960;-39
2022/06/29 00:44:12;;;;;;;;;;;;;;;24.89;76.49;99008.91;5035665;28;20027;-39
2022/06/29 00:46:42;;;;;;;;;;;;;;;25.25;71.86;99009.16;5034123;28;19921;-39
2022/06/29 00:49:07;;;;;;;;;;;;;;;25.06;71.92;99002.06;5032510;28;20463;-39
2022/06/29 00:51:32;;;;;;;;;;;;;;;24.69;74.00;99001.97;5032657;28;19920;-39
2022/06/29 00:53:57;;;;;;;;;;;;;;;24.79;72.72;99002.78;5033759;28;20378;-39
2022/06/29 00:56:22;;;;;;;;;;;;;;;25.10;71.10;98989.44;5033965;28;19921;-39
2022/06/29 00:58:48;;;;;;;;;;;;;;;25.12;71.14;98982.22;5034536;28;20031;-39
2022/06/29 01:01:13;;;;;;;;;;;;;;;25.38;69.78;98982.47;5034210;28;20353;-39
2022/06/29 01:03:38;;;;;;;;;;;;;;;25.45;70.13;98989.66;5035099;28;19932;-39
2022/06/29 01:06:03;;;;;;;;;;;;;;;25.39;70.33;98986.78;5032666;28;19921;-39
2022/06/29 01:08:29;;;;;;;;;;;;;;;25.22;70.80;98975.97;5034482;28;19923;-39
2022/06/29 01:10:54;;;;;;;;;;;;;;;25.35;69.96;98983.56;5033931;28;20016;-39
2022/06/29 01:13:19;;;;;;;;;;;;;;;25.39;70.71;98982.31;5034272;28;20061;-39
2022/06/29 01:15:44;;;;;;;;;;;;;;;25.40;71.65;98981.34;5034778;28;19916;-39
2022/06/29 01:18:09;;;;;;;;;;;;;;;25.29;71.66;98984.13;5034428;28;19927;-39
2022/06/29 01:20:35;;;;;;;;;;;;;;;25.05;73.99;98980.16;5034935;28;19936;-39
2022/06/29 01:23:00;;;;;;;;;;;;;;;25.24;74.79;98973.22;5034375;28;20015;-39
2022/06/29 01:25:25;;;;;;;;;;;;;;;24.87;74.81;98973.13;5034608;28;19964;-39
2022/06/29 01:27:50;;;;;;;;;;;;;;;24.88;75.41;98978.25;5033876;28;20945;-39
2022/06/29 01:30:16;;;;;;;;;;;;;;;25.03;75.74;98974.19;5034428;28;19948;-39
2022/06/29 01:32:42;;;;;;;;;;;;;;;24.91;76.33;98977.97;5033688;28;19931;-39
2022/06/29 01:35:09;;;;;;;;;;;;;;;24.96;77.05;98973.09;5034524;28;19956;-39
2022/06/29 01:37:34;;;;;;;;;;;;;;;25.20;75.84;98977.94;5034667;28;19921;-39
2022/06/29 01:39:59;;;;;;;;;;;;;;;25.14;76.33;98970.56;5033023;28;19932;-39
2022/06/29 01:42:25;;;;;;;;;;;;;;;25.03;76.56;98968.94;5033490;28;19950;-39
2022/06/29 01:44:50;;;;;;;;;;;;;;;24.74;77.79;98962.88;5034221;28;19924;-39
2022/06/29 01:47:15;;;;;;;;;;;;;;;24.94;77.56;98961.06;5033160;28;19921;-39
2022/06/29 01:49:40;;;;;;;;;;;;;;;24.85;79.23;98965.34;5033155;28;19921;-39
2022/06/29 01:52:06;;;;;;;;;;;;;;;24.69;79.10;98955.41;5033941;28;19974;-39
2022/06/29 01:54:31;;;;;;;;;;;;;;;23.89;81.16;98962.50;5034708;28;19936;-39
2022/06/29 01:56:56;;;;;;;;;;;;;;;24.36;82.56;98959.28;5033972;28;19927;-39
2022/06/29 01:59:21;;;;;;;;;;;;;;;24.29;81.96;98958.13;5034134;28;19980;-39
2022/06/29 02:01:48;;;;;;;;;;;;;;;24.79;80.97;98955.38;5032001;28;19982;-39
2022/06/29 02:04:13;;;;;;;;;;;;;;;24.81;81.43;98953.44;5033891;28;19931;-39
2022/06/29 02:06:39;;;;;;;;;;;;;;;24.98;79.83;98947.44;5033207;28;19920;-39
2022/06/29 02:09:04;;;;;;;;;;;;;;;24.93;79.76;98957.59;5032794;28;19927;-39
2022/06/29 02:11:29;;;;;;;;;;;;;;;24.99;80.11;98949.09;5032837;28;20424;-39
2022/06/29 02:13:54;;;;;;;;;;;;;;;25.04;79.83;98939.00;5034620;28;20908;-39
2022/06/29 02:16:20;;;;;;;;;;;;;;;25.11;79.48;98939.25;5033960;28;20623;-39
2022/06/29 02:18:45;;;;;;;;;;;;;;;25.01;79.27;98935.78;5032738;28;20504;-39
2022/06/29 02:21:10;;;;;;;;;;;;;;;24.67;80.19;98931.00;5032626;28;19921;-39
2022/06/29 02:23:35;;;;;;;;;;;;;;;24.94;80.29;98927.63;5032892;28;19936;-39
2022/06/29 02:26:01;;;;;;;;;;;;;;;25.00;79.90;98927.06;5033276;28;19920;-39
2022/06/29 02:28:26;;;;;;;;;;;;;;;25.11;79.24;98922.59;5028590;28;19924;-39
2022/06/29 02:36:19;;;;;;;;;;;;;;;24.85;79.59;98920.56;5032371;28;20360;-39
2022/06/29 02:38:44;;;;;;;;;;;;;;;24.76;78.97;98921.44;5029836;28;19968;-39
2022/06/29 02:41:09;;;;;;;;;;;;;;;24.50;80.69;98924.66;5031953;28;20459;-39
2022/06/29 02:43:34;;;;;;;;;;;;;;;24.25;80.57;98925.19;5031654;28;19925;-39
2022/06/29 02:46:00;;;;;;;;;;;;;;;24.25;80.63;98919.94;5032634;28;19921;-39
2022/06/29 02:48:25;;;;;;;;;;;;;;;23.68;82.94;98919.69;5032573;28;20023;-39
2022/06/29 02:50:50;;;;;;;;;;;;;;;24.38;81.89;98915.19;5031331;28;19925;-39
2022/06/29 02:53:15;;;;;;;;;;;;;;;24.55;81.66;98911.91;5032098;28;19960;-39
2022/06/29 02:55:41;;;;;;;;;;;;;;;24.50;82.31;98906.22;5032653;28;19959;-39
2022/06/29 02:58:06;;;;;;;;;;;;;;;24.60;81.66;98914.94;5031551;28;20405;-39
2022/06/29 03:00:31;;;;;;;;;;;;;;;24.35;80.89;98910.22;5031527;28;20365;-39
2022/06/29 03:02:56;;;;;;;;;;;;;;;24.18;79.74;98909.94;5030922;28;19968;-39
2022/06/29 03:05:22;;;;;;;;;;;;;;;24.28;79.52;98903.84;5031882;28;19921;-39
2022/06/29 03:07:47;;;;;;;;;;;;;;;24.00;80.69;98906.34;5031933;28;21035;-39
2022/06/29 03:10:12;;;;;;;;;;;;;;;23.55;84.51;98906.75;5030730;28;19979;-39
2022/06/29 03:12:37;;;;;;;;;;;;;;;23.66;83.96;98903.19;5032847;28;19925;-39
2022/06/29 03:15:03;;;;;;;;;;;;;;;23.81;84.66;98904.47;5034818;28;19924;-39
2022/06/29 03:17:28;;;;;;;;;;;;;;;23.26;86.90;98909.28;5035581;28;19920;-39
2022/06/29 03:19:53;;;;;;;;;;;;;;;23.14;86.91;98905.91;5034363;28;19928;-40
2022/06/29 03:22:19;;;;;;;;;;;;;;;23.01;89.12;98907.91;5034550;28;19921;-39
2022/06/29 03:24:44;;;;;;;;;;;;;;;22.80;90.70;98911.38;5033713;28;19931;-39
2022/06/29 03:27:09;;;;;;;;;;;;;;;22.70;92.29;98910.50;5034917;28;19921;-39
2022/06/29 03:29:34;;;;;;;;;;;;;;;23.19;92.14;98911.59;5034828;28;19921;-39
2022/06/29 03:32:00;;;;;;;;;;;;;;;23.22;91.35;98903.47;5034342;28;19982;-39
2022/06/29 03:34:25;;;;;;;;;;;;;;;23.00;93.28;98901.00;5035450;28;20432;-40
2022/06/29 03:36:50;;;;;;;;;;;;;;;23.26;92.25;98902.22;5034055;28;19985;-39
2022/06/29 03:39:15;;;;;;;;;;;;;;;23.02;92.82;98904.34;5031229;28;19959;-39
2022/06/29 03:41:41;;;;;;;;;;;;;;;22.84;94.42;98912.78;5033703;28;19924;-39
2022/06/29 03:44:06;;;;;;;;;;;;;;;23.01;93.06;98902.66;5033049;28;19924;-40
2022/06/29 03:46:31;;;;;;;;;;;;;;;23.03;92.20;98895.50;5034886;28;20540;-39
2022/06/29 03:48:56;;;;;;;;;;;;;;;23.00;92.28;98895.75;5033503;28;20037;-39
2022/06/29 03:51:22;;;;;;;;;;;;;;;22.84;91.97;98889.16;5035060;28;19920;-39
2022/06/29 03:53:47;;;;;;;;;;;;;;;22.25;95.51;98893.16;5034479;28;19925;-39
2022/06/29 03:56:12;;;;;;;;;;;;;;;22.22;96.65;98895.22;5034905;28;20366;-39
2022/06/29 03:58:38;;;;;;;;;;;;;;;22.11;98.03;98906.56;5034816;28;19994;-39
2022/06/29 04:01:04;;;;;;;;;;;;;;;22.50;97.06;98902.47;5033046;28;19952;-40
2022/06/29 04:03:29;;;;;;;;;;;;;;;22.44;98.45;98900.38;5034799;28;19921;-39
2022/06/29 04:05:54;;;;;;;;;;;;;;;22.55;98.89;98881.91;5035178;28;19920;-39
2022/06/29 04:08:19;;;;;;;;;;;;;;;22.58;99.93;98890.50;5035055;28;20680;-39
2022/06/29 04:10:45;;;;;;;;;;;;;;;22.66;98.27;98883.66;5032181;28;19962;-39
2022/06/29 04:13:10;;;;;;;;;;;;;;;22.67;98.87;98890.56;5035087;28;19960;-39
2022/06/29 04:15:35;;;;;;;;;;;;;;;22.68;98.47;98886.16;5033561;28;19967;-39
2022/06/29 04:18:01;;;;;;;;;;;;;;;22.87;98.57;98886.25;5035014;28;19991;-39
2022/06/29 04:23:10;;;;;;;;;;;;;;;22.74;98.96;98881.22;5035411;28;19932;-39
2022/06/29 04:25:35;;;;;;;;;;;;;;;22.98;97.67;98878.28;5033783;28;19921;-39
2022/06/29 04:28:01;;;;;;;;;;;;;;;23.18;95.95;98873.16;5034647;28;19921;-39
2022/06/29 04:30:26;;;;;;;;;;;;;;;22.88;96.82;98881.84;5032317;28;19974;-40
2022/06/29 04:32:51;;;;;;;;;;;;;;;22.90;98.43;98878.13;5033540;28;19951;-39
2022/06/29 04:35:16;;;;;;;;;;;;;;;23.04;99.66;98874.34;5032850;28;20274;-39
2022/06/29 04:37:41;;;;;;;;;;;;;;;22.94;99.45;98882.16;5034617;28;20456;-40
2022/06/29 04:40:07;;;;;;;;;;;;;;;23.13;99.06;98880.63;5033200;28;19998;-40
2022/06/29 04:42:32;;;;;;;;;;;;;;;22.76;100.00;98878.44;5033753;28;19944;-39
2022/06/29 04:44:57;;;;;;;;;;;;;;;23.08;100.00;98878.38;5034185;28;20100;-40
2022/06/29 04:47:23;;;;;;;;;;;;;;;23.31;100.00;98878.19;5032792;28;19950;-39
2022/06/29 04:49:48;;;;;;;;;;;;;;;23.75;99.12;98870.88;5033746;28;19971;-39
2022/06/29 04:52:13;;;;;;;;;;;;;;;23.63;99.78;98871.91;5033947;28;19962;-39
2022/06/29 04:54:39;;;;;;;;;;;;;;;23.18;100.00;98868.75;5032925;28;19916;-39
2022/06/29 04:57:06;;;;;;;;;;;;;;;23.59;100.00;98860.84;5032960;28;19963;-39
2022/06/29 04:59:31;;;;;;;;;;;;;;;23.57;100.00;98868.03;5031675;28;19917;-39
2022/06/29 05:01:56;;;;;;;;;;;;;;;23.41;100.00;98862.47;5034024;28;19932;-39
2022/06/29 05:04:21;;;;;;;;;;;;;;;23.21;100.00;98866.81;5034063;28;20443;-39
2022/06/29 05:06:46;;;;;;;;;;;;;;;23.44;100.00;98862.19;5033020;28;20252;-40
2022/06/29 05:09:12;;;;;;;;;;;;;;;23.97;100.00;98859.25;5032698;28;19921;-39
2022/06/29 05:11:37;;;;;;;;;;;;;;;24.54;98.90;98852.31;5031673;28;20661;-39
2022/06/29 05:14:02;;;;;;;;;;;;;;;25.08;94.33;98849.09;5034253;28;19935;-39
2022/06/29 05:16:27;;;;;;;;;;;;;;;25.38;94.16;98848.81;5034142;28;19921;-39
2022/06/29 05:18:53;;;;;;;;;;;;;;;25.61;92.52;98837.88;5031871;28;19920;-40
2022/06/29 05:21:19;;;;;;;;;;;;;;;26.10;92.14;98838.38;5032941;28;19956;-39
2022/06/29 05:23:44;;;;;;;;;;;;;;;26.04;88.74;98837.16;5033870;28;19925;-40
2022/06/29 05:26:09;;;;;;;;;;;;;;;24.92;89.05;98841.81;5034064;28;19952;-39
2022/06/29 05:28:35;;;;;;;;;;;;;;;25.16;88.92;98830.75;5031539;28;19927;-40
2022/06/29 05:31:00;;;;;;;;;;;;;;;24.78;88.99;98829.94;5030871;28;19921;-40
2022/06/29 05:33:25;;;;;;;;;;;;;;;26.06;84.26;98826.44;5032814;28;19927;-40
2022/06/29 05:35:51;;;;;;;;;;;;;;;26.02;81.02;98822.44;5033626;28;20763;-40
2022/06/29 05:38:16;;;;;;;;;;;;;;;26.65;82.32;98827.56;5033274;28;19978;-40
2022/06/29 05:40:42;;;;;;;;;;;;;;;27.11;81.23;98833.41;5031281;28;20100;-40
2022/06/29 05:43:07;;;;;;;;;;;;;;;27.16;80.59;98834.75;5033515;28;19931;-39
2022/06/29 05:45:33;;;;;;;;;;;;;;;27.25;74.89;98832.00;5032648;28;19920;-40
2022/06/29 05:47:58;;;;;;;;;;;;;;;25.70;75.92;98839.59;5033430;28;19952;-39
2022/06/29 05:50:24;;;;;;;;;;;;;;;25.88;79.26;98832.56;5031810;28;19932;-40
2022/06/29 05:52:49;;;;;;;;;;;;;;;26.97;75.31;98834.00;5032998;28;19981;-40
2022/06/29 05:55:14;;;;;;;;;;;;;;;26.07;75.50;98836.03;5033092;28;19928;-39
2022/06/29 05:57:39;;;;;;;;;;;;;;;26.58;73.63;98833.63;5032193;28;19960;-39
2022/06/29 06:00:05;;;;;;;;;;;;;;;27.17;73.95;98823.19;5031947;28;20377;-40
2022/06/29 06:02:30;;;;;;;;;;;;;;;27.48;70.04;98826.13;5031905;28;19999;-39
2022/06/29 06:04:55;;;;;;;;;;;;;;;27.68;69.96;98821.38;5033400;28;19923;-39
2022/06/29 06:07:21;;;;;;;;;;;;;;;27.39;69.25;98821.78;5032792;28;19944;-39
2022/06/29 06:09:46;;;;;;;;;;;;;;;27.25;70.45;98820.59;5032529;28;19917;-39
2022/06/29 06:12:11;;;;;;;;;;;;;;;27.20;69.35;98823.72;5033257;28;20758;-39
2022/06/29 06:14:37;;;;;;;;;;;;;;;27.33;74.13;98824.09;5033452;28;19917;-39
2022/06/29 06:17:02;;;;;;;;;;;;;;;27.91;67.15;98821.59;5033188;28;19951;-39
2022/06/29 06:19:27;;;;;;;;;;;;;;;28.27;68.28;98824.72;5033119;28;19925;-39
2022/06/29 06:21:52;;;;;;;;;;;;;;;28.13;69.72;98825.41;5032929;28;20324;-39
2022/06/29 06:24:18;;;;;;;;;;;;;;;27.27;69.96;98829.19;5033203;28;20329;-39
2022/06/29 06:26:43;;;;;;;;;;;;;;;28.24;71.41;98821.59;5033350;28;19921;-39
2022/06/29 06:29:08;;;;;;;;;;;;;;;26.87;76.83;98822.75;5032478;28;20050;-39
2022/06/29 06:31:34;;;;;;;;;;;;;;;27.50;73.02;98813.56;5032514;28;20046;-39
2022/06/29 06:34:00;;;;;;;;;;;;;;;27.66;71.40;98812.75;5033743;28;19927;-39
2022/06/29 06:36:25;;;;;;;;;;;;;;;29.86;67.35;98810.59;5032583;28;19917;-39
2022/06/29 06:38:50;;;;;;;;;;;;;;;30.30;63.53;98809.91;5031228;28;19925;-39
2022/06/29 06:41:21;;;;;;;;;;;;;;;29.77;65.24;98809.81;5033227;28;20043;-39
2022/06/29 06:43:50;;;;;;;;;;;;;;;30.19;64.94;98807.66;5032568;28;19971;-39
2022/06/29 06:46:15;;;;;;;;;;;;;;;29.74;66.81;98798.72;5032788;28;19956;-39
2022/06/29 06:48:42;;;;;;;;;;;;;;;30.04;64.82;98802.31;5035586;28;20007;-39
2022/06/29 06:51:07;;;;;;;;;;;;;;;30.75;63.91;98802.78;5035986;28;19921;-39
2022/06/29 06:53:33;;;;;;;;;;;;;;;30.66;65.43;98805.72;5036130;28;19920;-39
2022/06/29 06:55:58;;;;;;;;;;;;;;;30.78;66.17;98806.91;5036173;28;19999;-39
2022/06/29 06:58:23;;;;;;;;;;;;;;;30.89;65.84;98810.97;5036695;28;20030;-39
2022/06/29 07:00:48;;;;;;;;;;;;;;;30.84;63.30;98804.38;5035087;28;19920;-39
2022/06/29 07:03:14;;;;;;;;;;;;;;;30.74;66.84;98806.44;5034693;28;20011;-39
2022/06/29 07:05:39;;;;;;;;;;;;;;;30.78;64.15;98805.06;5036189;28;20322;-39
2022/06/29 07:08:04;;;;;;;;;;;;;;;31.61;62.37;98794.22;5036313;28;20413;-39
2022/06/29 07:10:29;;;;;;;;;;;;;;;31.18;59.84;98792.31;5035070;28;19949;-39
2022/06/29 07:12:55;;;;;;;;;;;;;;;31.34;61.23;98799.25;5036266;28;19962;-39
2022/06/29 07:15:20;;;;;;;;;;;;;;;31.62;62.95;98794.03;5035537;28;19920;-39
2022/06/29 07:17:45;;;;;;;;;;;;;;;31.04;61.75;98803.78;5034704;28;19917;-39
2022/06/29 07:20:10;;;;;;;;;;;;;;;32.03;61.84;98796.09;5035388;28;19975;-39
2022/06/29 07:22:36;;;;;;;;;;;;;;;31.16;60.97;98799.66;5036027;28;19920;-39
2022/06/29 07:25:01;;;;;;;;;;;;;;;31.04;63.82;98809.13;5035494;28;19920;-39
2022/06/29 07:27:26;;;;;;;;;;;;;;;30.89;65.01;98803.00;5035638;28;20370;-39
2022/06/29 07:29:52;;;;;;;;;;;;;;;30.20;69.94;98806.66;5035585;28;19920;-39
2022/06/29 07:32:20;;;;;;;;;;;;;;;30.52;70.45;98813.50;5035249;28;19928;-39
2022/06/29 07:34:46;;;;;;;;;;;;;;;30.65;68.10;98807.53;5035868;28;19925;-39
2022/06/29 07:37:11;;;;;;;;;;;;;;;30.29;64.54;98812.72;5035542;28;19982;-39
2022/06/29 07:39:36;;;;;;;;;;;;;;;29.32;75.10;98826.47;5033692;28;19963;-39
2022/06/29 07:42:02;;;;;;;;;;;;;;;29.84;72.71;98815.25;5035460;28;19916;-39
2022/06/29 07:44:27;;;;;;;;;;;;;;;29.91;67.25;98821.50;5035505;28;20842;-39
2022/06/29 07:46:52;;;;;;;;;;;;;;;29.41;73.70;98814.81;5035337;28;19946;-39
2022/06/29 07:49:18;;;;;;;;;;;;;;;29.68;69.79;98815.38;5034413;28;20340;-39
2022/06/29 07:51:43;;;;;;;;;;;;;;;29.81;69.02;98820.91;5035027;28;19955;-39
2022/06/29 07:54:08;;;;;;;;;;;;;;;30.11;71.40;98821.00;5035042;28;19990;-39
2022/06/29 07:56:36;;;;;;;;;;;;;;;30.44;68.97;98822.38;5034828;28;20453;-39
2022/06/29 07:59:01;;;;;;;;;;;;;;;30.60;67.52;98817.91;5033944;28;19928;-39
2022/06/29 08:01:26;;;;;;;;;;;;;;;30.07;68.38;98819.72;5034299;28;19921;-39
2022/06/29 08:03:53;;;;;;;;;;;;;;;29.73;73.03;98829.75;5034802;28;20956;-39
2022/06/29 08:06:18;;;;;;;;;;;;;;;30.14;71.09;98828.63;5033716;28;20648;-39
2022/06/29 08:08:44;;;;;;;;;;;;;;;30.09;70.10;98831.00;5034600;28;19921;-39
2022/06/29 08:11:09;;;;;;;;;;;;;;;30.27;71.78;98830.69;5034081;28;20348;-39
2022/06/29 08:13:34;;;;;;;;;;;;;;;30.25;73.09;98822.88;5033442;28;19921;-39
2022/06/29 08:15:59;;;;;;;;;;;;;;;30.22;69.09;98823.22;5034611;28;19928;-39
2022/06/29 08:18:25;;;;;;;;;;;;;;;30.23;70.31;98820.38;5033650;28;19913;-39
2022/06/29 08:20:50;;;;;;;;;;;;;;;30.33;70.59;98825.47;5032352;28;20051;-38
2022/06/29 08:23:15;;;;;;;;;;;;;;;30.13;71.17;98824.28;5033712;28;19971;-39
2022/06/29 08:25:40;;;;;;;;;;;;;;;30.00;73.15;98825.72;5035119;28;19923;-39
2022/06/29 08:28:06;;;;;;;;;;;;;;;30.28;69.13;98817.22;5030783;28;19964;-39
2022/06/29 08:30:31;;;;;;;;;;;;;;;29.08;75.34;98820.31;5034936;28;19917;-39
2022/06/29 08:32:56;;;;;;;;;;;;;;;28.71;76.69;98826.19;5031883;28;19956;-39
2022/06/29 08:35:22;;;;;;;;;;;;;;;29.21;75.84;98832.16;5034348;28;19920;-39
2022/06/29 08:37:47;;;;;;;;;;;;;;;29.80;72.97;98824.56;5033829;28;19917;-39
2022/06/29 08:40:13;;;;;;;;;;;;;;;30.08;71.13;98822.16;5032560;28;20451;-39
2022/06/29 08:42:39;;;;;;;;;;;;;;;29.96;73.12;98819.13;5033087;28;19929;-39
2022/06/29 08:45:05;;;;;;;;;;;;;;;30.20;71.40;98817.28;5033950;28;20438;-39
2022/06/29 08:47:30;;;;;;;;;;;;;;;30.11;70.05;98821.00;5034153;28;19917;-39
2022/06/29 08:49:56;;;;;;;;;;;;;;;30.36;70.11;98816.34;5033202;28;20964;-39
2022/06/29 08:52:21;;;;;;;;;;;;;;;30.48;68.79;98822.03;5034293;28;19916;-39
2022/06/29 08:54:48;;;;;;;;;;;;;;;30.54;69.84;98822.13;5032651;28;19921;-39
2022/06/29 08:57:13;;;;;;;;;;;;;;;30.53;70.11;98819.66;5033988;28;20260;-39
2022/06/29 08:59:38;;;;;;;;;;;;;;;30.75;65.72;98818.75;5033267;28;19951;-39
2022/06/29 09:02:04;;;;;;;;;;;;;;;30.91;64.47;98816.94;5033707;28;20392;-39
2022/06/29 09:04:29;;;;;;;;;;;;;;;30.68;67.04;98828.47;5034438;28;20872;-39
2022/06/29 09:06:55;;;;;;;;;;;;;;;30.80;67.45;98824.31;5033711;28;19917;-39
2022/06/29 09:09:20;;;;;;;;;;;;;;;30.72;70.39;98829.72;5033194;28;19962;-39
2022/06/29 09:11:46;;;;;;;;;;;;;;;30.50;71.70;98828.00;5032650;28;19921;-39
2022/06/29 09:14:24;;;;;;;;;;;;;;;30.83;71.03;98829.25;5032436;28;20181;-39
2022/06/29 09:16:49;;;;;;;;;;;;;;;30.76;72.37;98825.69;5040590;28;19986;-39
2022/06/29 09:19:17;;;;;;;;;;;;;;;31.10;68.20;98826.19;5033065;28;20027;-39
2022/06/29 09:21:49;;;;;;;;;;;;;;;31.05;67.84;98824.06;5033655;28;19981;-39
2022/06/29 09:24:18;;;;;;;;;;;;;;;31.00;69.99;98823.81;5033673;28;19928;-39
2022/06/29 09:26:48;;;;;;;;;;;;;;;31.12;70.82;98829.47;5033654;28;19952;-39
2022/06/29 09:29:27;;;;;;;;;;;;;;;31.07;71.57;98824.72;5032112;28;20301;-39
2022/06/29 09:32:01;;;;;;;;;;;;;;;31.12;70.95;98834.81;5032855;28;19979;-39
2022/06/29 09:34:28;;;;;;;;;;;;;;;30.83;72.75;98831.94;5033065;28;19920;-39
2022/06/29 09:36:57;;;;;;;;;;;;;;;29.80;73.60;98829.88;5033193;28;20389;-39
2022/06/29 09:39:36;;;;;;;;;;;;;;;30.42;73.63;98829.69;5023714;28;20003;-39
2022/06/29 09:42:02;;;;;;;;;;;;;;;31.08;69.96;98834.34;5033656;28;19927;-39
2022/06/29 09:44:27;;;;;;;;;;;;;;;31.03;70.69;98839.41;5030983;28;19922;-39
2022/06/29 09:46:54;;;;;;;;;;;;;;;31.09;68.54;98830.69;5033672;28;20957;-39
2022/06/29 09:49:20;;;;;;;;;;;;;;;30.80;71.53;98832.31;5033059;28;20018;-39
2022/06/29 09:51:45;;;;;;;;;;;;;;;30.88;70.65;98834.06;5032056;28;20429;-39
2022/06/29 09:54:10;;;;;;;;;;;;;;;30.74;73.98;98843.66;5031795;28;19920;-39
2022/06/29 09:56:36;;;;;;;;;;;;;;;30.77;73.54;98840.66;5031968;28;19956;-39
2022/06/29 09:59:02;;;;;;;;;;;;;;;30.73;72.67;98847.34;5032837;28;19916;-39
2022/06/29 10:04:16;;;;;;;;;;;;;;;30.60;73.83;98840.00;5031862;28;20040;-39
2022/06/29 10:06:42;;;;;;;;;;;;;;;30.56;74.34;98845.84;5033166;28;20393;-39
2022/06/29 10:09:07;;;;;;;;;;;;;;;30.77;73.20;98830.03;5031543;28;20012;-39
2022/06/29 10:14:40;;;;;;;;;;;;;;;30.74;73.64;98840.19;5031886;28;19927;-39
2022/06/29 10:17:18;;;;;;;;;;;;;;;30.91;70.10;98839.03;5032880;28;19960;-39
2022/06/29 10:19:46;;;;;;;;;;;;;;;30.82;72.69;98840.09;5032355;28;19921;-39
2022/06/29 10:22:12;;;;;;;;;;;;;;;30.87;72.37;98831.63;5035684;28;19921;-39
2022/06/29 10:24:37;;;;;;;;;;;;;;;30.80;70.92;98840.28;5035952;28;19928;-39
2022/06/29 10:27:06;;;;;;;;;;;;;;;30.67;74.75;98836.63;5036396;28;19921;-39
2022/06/29 10:29:32;;;;;;;;;;;;;;;30.95;72.54;98831.50;5035947;28;20680;-39
2022/06/29 10:31:58;;;;;;;;;;;;;;;29.93;82.98;98839.91;5035868;28;20003;-39
2022/06/29 10:34:32;;;;;;;;;;;;;;;29.50;87.71;98829.69;5036530;28;20382;-39
2022/06/29 10:36:57;;;;;;;;;;;;;;;29.91;86.15;98823.31;5036558;28;20453;-39
2022/06/29 10:39:23;;;;;;;;;;;;;;;30.29;83.78;98823.34;5036036;28;19974;-39
2022/06/29 10:44:51;;;;;;;;;;;;;;;29.74;85.85;98822.59;5037207;28;19932;-39
2022/06/29 10:47:22;;;;;;;;;;;;;;;29.74;83.84;98825.25;5036744;28;20488;-39
2022/06/29 10:49:47;;;;;;;;;;;;;;;29.76;85.79;98817.94;5035222;28;19990;-39
2022/06/29 10:52:13;;;;;;;;;;;;;;;30.33;83.75;98816.69;5036731;28;19924;-39
2022/06/29 10:54:38;;;;;;;;;;;;;;;30.91;78.48;98806.31;5035600;28;19947;-39
2022/06/29 10:57:03;;;;;;;;;;;;;;;31.13;76.32;98805.34;5036101;28;19917;-39
2022/06/29 10:59:32;;;;;;;;;;;;;;;30.62;77.72;98813.25;5034635;28;19927;-39
2022/06/29 11:02:10;;;;;;;;;;;;;;;31.12;76.07;98811.69;5036717;28;19921;-39
2022/06/29 11:04:36;;;;;;;;;;;;;;;31.40;73.77;98809.13;5036218;28;19931;-39
2022/06/29 11:12:35;;;;;;;;;;;;;;;31.51;75.38;98807.84;5036916;28;19923;-39
2022/06/29 11:17:48;;;;;;;;;;;;;;;30.81;74.69;98810.03;5036684;28;19928;-39
2022/06/29 11:20:17;;;;;;;;;;;;;;;30.18;80.35;98811.31;5034715;28;19921;-39
2022/06/29 11:22:49;;;;;;;;;;;;;;;30.91;78.60;98803.66;5036048;28;19921;-39
2022/06/29 11:25:14;;;;;;;;;;;;;;;31.34;75.98;98801.06;5035748;28;20023;-39
2022/06/29 11:27:39;;;;;;;;;;;;;;;31.56;74.35;98789.47;5036704;28;19935;-39
2022/06/29 11:30:05;;;;;;;;;;;;;;;31.37;75.80;98795.41;5035374;28;20003;-39
2022/06/29 11:32:38;;;;;;;;;;;;;;;31.37;71.06;98803.38;5033437;28;19921;-39
2022/06/29 11:35:04;;;;;;;;;;;;;;;31.07;72.69;98800.78;5036014;28;19924;-39
2022/06/29 11:37:29;;;;;;;;;;;;;;;30.68;75.38;98801.88;5036117;28;19917;-39
2022/06/29 11:39:54;;;;;;;;;;;;;;;30.94;74.54;98797.94;5034116;28;19939;-39
2022/06/29 11:45:05;;;;;;;;;;;;;;;30.97;78.79;98794.91;5035145;28;19928;-39
2022/06/29 11:47:30;;;;;;;;;;;;;;;30.91;78.26;98793.00;5035721;28;19920;-39
2022/06/29 11:49:55;;;;;;;;;;;;;;;31.14;75.68;98790.22;5035507;28;19928;-39
2022/06/29 11:52:21;;;;;;;;;;;;;;;31.36;73.67;98788.41;5033389;28;19921;-39
2022/06/29 11:54:49;;;;;;;;;;;;;;;31.53;72.37;98781.88;5034271;28;19917;-39
2022/06/29 11:57:18;;;;;;;;;;;;;;;31.89;74.62;98770.34;5035524;28;20012;-39
2022/06/29 11:59:44;;;;;;;;;;;;;;;31.88;78.23;98766.81;5035228;28;19916;-39
2022/06/29 12:02:10;;;;;;;;;;;;;;;32.88;74.99;98764.84;5035832;28;21200;-39
2022/06/29 12:04:37;;;;;;;;;;;;;;;32.87;71.83;98768.56;5035507;28;19921;-39
2022/06/29 12:07:09;;;;;;;;;;;;;;;32.52;77.20;98766.94;5035195;28;19928;-39
2022/06/29 12:09:37;;;;;;;;;;;;;;;33.11;72.32;98766.41;5035174;28;19959;-39
2022/06/29 12:12:02;;;;;;;;;;;;;;;34.04;68.24;98755.88;5035656;28;19975;-39
2022/06/29 12:14:27;;;;;;;;;;;;;;;33.57;63.93;98764.88;5034845;28;19924;-40
2022/06/29 12:16:53;;;;;;;;;;;;;;;33.29;70.04;98764.00;5035689;28;19928;-39
2022/06/29 12:19:18;;;;;;;;;;;;;;;33.84;63.53;98752.38;5031940;28;20047;-39
2022/06/29 12:21:44;;;;;;;;;;;;;;;34.14;62.34;98761.66;5034683;28;19924;-39
2022/06/29 12:24:09;;;;;;;;;;;;;;;34.23;63.33;98756.91;5033161;28;19925;-39
2022/06/29 12:26:34;;;;;;;;;;;;;;;34.57;60.30;98755.78;5035051;28;19993;-39
2022/06/29 12:28:59;;;;;;;;;;;;;;;33.87;62.62;98750.16;5033267;28;20020;-39
2022/06/29 12:31:25;;;;;;;;;;;;;;;33.07;68.75;98757.16;5034570;28;19999;-39
2022/06/29 12:33:50;;;;;;;;;;;;;;;33.34;67.78;98755.38;5033340;28;19921;-39
2022/06/29 12:36:15;;;;;;;;;;;;;;;33.49;67.46;98747.19;5034527;28;20540;-39
2022/06/29 12:38:40;;;;;;;;;;;;;;;32.67;73.79;98744.44;5032546;28;19928;-39
2022/06/29 12:41:05;;;;;;;;;;;;;;;33.65;73.36;98740.69;5032073;28;19920;-39
2022/06/29 12:43:31;;;;;;;;;;;;;;;34.44;66.19;98739.81;5033866;28;20522;-39
2022/06/29 12:45:56;;;;;;;;;;;;;;;32.33;76.46;98739.13;5033983;28;19932;-39
2022/06/29 12:48:21;;;;;;;;;;;;;;;33.42;74.58;98736.50;5034309;28;19928;-39
2022/06/29 12:50:47;;;;;;;;;;;;;;;33.59;66.98;98731.63;5034081;28;20499;-39
2022/06/29 12:53:12;;;;;;;;;;;;;;;32.11;72.76;98727.69;5033348;28;19971;-39
2022/06/29 12:55:38;;;;;;;;;;;;;;;33.70;65.33;98717.66;5034453;28;19932;-39
2022/06/29 12:58:03;;;;;;;;;;;;;;;35.14;61.97;98715.88;5034649;28;19925;-39
2022/06/29 13:00:29;;;;;;;;;;;;;;;33.61;59.49;98712.72;5033728;28;19928;-39
2022/06/29 13:02:54;;;;;;;;;;;;;;;33.99;63.31;98715.59;5034896;28;20562;-39
2022/06/29 13:05:21;;;;;;;;;;;;;;;35.29;57.45;98707.56;5034384;28;19999;-40